sensor_id;sensor_type;location;lat;lon;timestamp;P1;durP1;ratioP1;P2;durP2;ratioP2
23565;SDS011;22140;48.988;8.544;2023-04-06T00:01:46;12.73;;;5.00;;
23565;SDS011;22140;48.988;8.544;2023-04-06T00:06:49;11.95;;;5.53;;
23565;SDS011;22140;48.988;8.544;2023-04-06T00:11:50;15.38;;;5.60;;
23565;SDS011;22140;48.988;8.544;2023-04-06T00:16:52;11.27;;;5.20;;
23565;SDS011;22140;48.988;8.544;2023-04-06T00:21:53;13.10;;;5.40;;
23565;SDS011;22140;48.988;8.544;2023-04-06T00:26:55;12.02;;;5.28;;
23565;SDS011;22140;48.988;8.544;2023-04-06T00:31:56;13.15;;;5.45;;
23565;SDS011;22140;48.988;8.544;2023-04-06T00:42:11;14.57;;;5.27;;
23565;SDS011;22140;48.988;8.544;2023-04-06T00:47:16;14.02;;;5.50;;
23565;SDS011;22140;48.988;8.544;2023-04-06T00:52:17;12.60;;;5.43;;
23565;SDS011;22140;48.988;8.544;2023-04-06T00:57:19;20.13;;;6.45;;
23565;SDS011;22140;48.988;8.544;2023-04-06T01:02:20;28.30;;;8.23;;
23565;SDS011;22140;48.988;8.544;2023-04-06T01:07:22;22.70;;;7.27;;
23565;SDS011;22140;48.988;8.544;2023-04-06T01:12:24;19.20;;;7.55;;
23565;SDS011;22140;48.988;8.544;2023-04-06T01:17:25;14.30;;;5.65;;
23565;SDS011;22140;48.988;8.544;2023-04-06T01:22:26;13.38;;;5.63;;
23565;SDS011;22140;48.988;8.544;2023-04-06T01:27:28;13.73;;;5.57;;
23565;SDS011;22140;48.988;8.544;2023-04-06T01:32:31;13.57;;;6.27;;
23565;SDS011;22140;48.988;8.544;2023-04-06T01:37:32;14.25;;;5.40;;
23565;SDS011;22140;48.988;8.544;2023-04-06T01:42:33;16.20;;;5.50;;
23565;SDS011;22140;48.988;8.544;2023-04-06T01:47:35;12.93;;;5.43;;
23565;SDS011;22140;48.988;8.544;2023-04-06T01:52:37;11.88;;;5.07;;
23565;SDS011;22140;48.988;8.544;2023-04-06T01:57:38;15.10;;;5.27;;
23565;SDS011;22140;48.988;8.544;2023-04-06T02:02:39;13.70;;;4.80;;
23565;SDS011;22140;48.988;8.544;2023-04-06T02:07:41;12.38;;;4.90;;
23565;SDS011;22140;48.988;8.544;2023-04-06T02:12:42;12.60;;;4.70;;
23565;SDS011;22140;48.988;8.544;2023-04-06T02:17:44;12.55;;;5.03;;
23565;SDS011;22140;48.988;8.544;2023-04-06T02:22:45;11.83;;;4.93;;
23565;SDS011;22140;48.988;8.544;2023-04-06T02:27:47;11.05;;;4.40;;
23565;SDS011;22140;48.988;8.544;2023-04-06T02:32:48;11.05;;;4.65;;
23565;SDS011;22140;48.988;8.544;2023-04-06T02:37:49;13.05;;;4.70;;
23565;SDS011;22140;48.988;8.544;2023-04-06T02:42:51;10.07;;;4.05;;
23565;SDS011;22140;48.988;8.544;2023-04-06T02:47:52;10.23;;;4.20;;
23565;SDS011;22140;48.988;8.544;2023-04-06T02:52:53;10.63;;;4.40;;
23565;SDS011;22140;48.988;8.544;2023-04-06T02:57:55;9.60;;;4.00;;
23565;SDS011;22140;48.988;8.544;2023-04-06T03:02:56;10.48;;;4.20;;
23565;SDS011;22140;48.988;8.544;2023-04-06T03:07:58;9.23;;;3.80;;
23565;SDS011;22140;48.988;8.544;2023-04-06T03:12:59;12.93;;;4.47;;
23565;SDS011;22140;48.988;8.544;2023-04-06T03:18:01;10.73;;;3.92;;
23565;SDS011;22140;48.988;8.544;2023-04-06T03:23:02;10.07;;;3.88;;
23565;SDS011;22140;48.988;8.544;2023-04-06T03:28:04;10.30;;;4.18;;
23565;SDS011;22140;48.988;8.544;2023-04-06T03:33:05;11.25;;;3.90;;
23565;SDS011;22140;48.988;8.544;2023-04-06T03:38:07;11.10;;;4.40;;
23565;SDS011;22140;48.988;8.544;2023-04-06T03:43:10;10.00;;;3.67;;
23565;SDS011;22140;48.988;8.544;2023-04-06T03:48:12;10.15;;;4.70;;
23565;SDS011;22140;48.988;8.544;2023-04-06T03:53:13;9.95;;;4.25;;
23565;SDS011;22140;48.988;8.544;2023-04-06T03:58:14;9.80;;;4.63;;
23565;SDS011;22140;48.988;8.544;2023-04-06T04:03:16;11.27;;;4.50;;
23565;SDS011;22140;48.988;8.544;2023-04-06T04:08:17;21.45;;;5.05;;
23565;SDS011;22140;48.988;8.544;2023-04-06T04:13:19;14.88;;;4.93;;
23565;SDS011;22140;48.988;8.544;2023-04-06T04:18:20;15.35;;;4.90;;
23565;SDS011;22140;48.988;8.544;2023-04-06T04:23:21;14.43;;;5.63;;
23565;SDS011;22140;48.988;8.544;2023-04-06T04:28:23;11.93;;;4.47;;
23565;SDS011;22140;48.988;8.544;2023-04-06T04:33:24;28.58;;;6.57;;
23565;SDS011;22140;48.988;8.544;2023-04-06T04:38:28;15.35;;;5.60;;
23565;SDS011;22140;48.988;8.544;2023-04-06T04:43:30;29.30;;;5.47;;
23565;SDS011;22140;48.988;8.544;2023-04-06T04:48:33;16.75;;;4.60;;
23565;SDS011;22140;48.988;8.544;2023-04-06T04:53:34;10.67;;;4.17;;
23565;SDS011;22140;48.988;8.544;2023-04-06T04:58:35;22.40;;;4.53;;
23565;SDS011;22140;48.988;8.544;2023-04-06T05:03:37;10.95;;;4.50;;
23565;SDS011;22140;48.988;8.544;2023-04-06T05:08:40;11.20;;;4.45;;
23565;SDS011;22140;48.988;8.544;2023-04-06T05:13:41;11.10;;;4.43;;
23565;SDS011;22140;48.988;8.544;2023-04-06T05:18:43;13.37;;;4.63;;
23565;SDS011;22140;48.988;8.544;2023-04-06T05:23:44;16.52;;;4.43;;
23565;SDS011;22140;48.988;8.544;2023-04-06T05:28:45;17.38;;;5.03;;
23565;SDS011;22140;48.988;8.544;2023-04-06T05:33:47;11.38;;;4.28;;
23565;SDS011;22140;48.988;8.544;2023-04-06T05:38:48;19.60;;;5.90;;
23565;SDS011;22140;48.988;8.544;2023-04-06T05:43:51;14.90;;;5.77;;
23565;SDS011;22140;48.988;8.544;2023-04-06T05:48:52;16.70;;;5.78;;
23565;SDS011;22140;48.988;8.544;2023-04-06T05:53:54;17.38;;;7.10;;
23565;SDS011;22140;48.988;8.544;2023-04-06T05:58:55;25.90;;;6.68;;
23565;SDS011;22140;48.988;8.544;2023-04-06T06:03:57;15.57;;;7.35;;
23565;SDS011;22140;48.988;8.544;2023-04-06T06:08:58;52.03;;;8.90;;
23565;SDS011;22140;48.988;8.544;2023-04-06T06:14:04;17.48;;;6.35;;
23565;SDS011;22140;48.988;8.544;2023-04-06T06:19:05;14.73;;;6.30;;
23565;SDS011;22140;48.988;8.544;2023-04-06T06:24:07;15.35;;;5.85;;
23565;SDS011;22140;48.988;8.544;2023-04-06T06:29:08;16.77;;;6.38;;
23565;SDS011;22140;48.988;8.544;2023-04-06T06:34:10;13.00;;;6.10;;
23565;SDS011;22140;48.988;8.544;2023-04-06T06:39:14;14.88;;;6.22;;
23565;SDS011;22140;48.988;8.544;2023-04-06T06:44:15;14.65;;;5.78;;
23565;SDS011;22140;48.988;8.544;2023-04-06T06:49:17;13.77;;;6.15;;
23565;SDS011;22140;48.988;8.544;2023-04-06T06:54:19;13.55;;;6.05;;
23565;SDS011;22140;48.988;8.544;2023-04-06T06:59:20;14.40;;;6.07;;
23565;SDS011;22140;48.988;8.544;2023-04-06T07:04:22;13.63;;;5.60;;
23565;SDS011;22140;48.988;8.544;2023-04-06T07:09:24;26.00;;;7.78;;
23565;SDS011;22140;48.988;8.544;2023-04-06T07:14:28;15.77;;;6.93;;
23565;SDS011;22140;48.988;8.544;2023-04-06T07:19:29;30.95;;;10.45;;
23565;SDS011;22140;48.988;8.544;2023-04-06T07:24:30;29.37;;;11.10;;
23565;SDS011;22140;48.988;8.544;2023-04-06T07:29:32;18.35;;;8.02;;
23565;SDS011;22140;48.988;8.544;2023-04-06T07:34:33;16.55;;;6.80;;
23565;SDS011;22140;48.988;8.544;2023-04-06T07:39:35;31.27;;;7.23;;
23565;SDS011;22140;48.988;8.544;2023-04-06T07:44:36;29.17;;;6.40;;
23565;SDS011;22140;48.988;8.544;2023-04-06T07:49:37;16.07;;;5.30;;
23565;SDS011;22140;48.988;8.544;2023-04-06T07:54:40;12.68;;;4.90;;
23565;SDS011;22140;48.988;8.544;2023-04-06T07:59:41;13.35;;;5.18;;
23565;SDS011;22140;48.988;8.544;2023-04-06T08:04:43;31.43;;;5.33;;
23565;SDS011;22140;48.988;8.544;2023-04-06T08:09:46;9.32;;;4.78;;
23565;SDS011;22140;48.988;8.544;2023-04-06T08:14:47;24.02;;;5.20;;
23565;SDS011;22140;48.988;8.544;2023-04-06T08:19:49;12.20;;;5.00;;
23565;SDS011;22140;48.988;8.544;2023-04-06T08:24:50;10.82;;;4.80;;
23565;SDS011;22140;48.988;8.544;2023-04-06T08:29:51;17.42;;;5.95;;
23565;SDS011;22140;48.988;8.544;2023-04-06T08:34:54;41.83;;;7.30;;
23565;SDS011;22140;48.988;8.544;2023-04-06T08:39:57;13.63;;;5.32;;
23565;SDS011;22140;48.988;8.544;2023-04-06T08:44:59;8.63;;;4.88;;
23565;SDS011;22140;48.988;8.544;2023-04-06T08:50:02;12.67;;;5.20;;
23565;SDS011;22140;48.988;8.544;2023-04-06T08:55:04;19.17;;;6.37;;
23565;SDS011;22140;48.988;8.544;2023-04-06T09:00:06;18.25;;;5.72;;
23565;SDS011;22140;48.988;8.544;2023-04-06T09:05:08;12.63;;;5.43;;
23565;SDS011;22140;48.988;8.544;2023-04-06T09:10:11;28.67;;;6.40;;
23565;SDS011;22140;48.988;8.544;2023-04-06T09:15:21;15.45;;;5.88;;
23565;SDS011;22140;48.988;8.544;2023-04-06T09:20:25;21.33;;;6.22;;
23565;SDS011;22140;48.988;8.544;2023-04-06T09:25:27;13.03;;;5.07;;
23565;SDS011;22140;48.988;8.544;2023-04-06T09:30:29;12.75;;;5.30;;
23565;SDS011;22140;48.988;8.544;2023-04-06T09:35:30;14.98;;;5.30;;
23565;SDS011;22140;48.988;8.544;2023-04-06T09:40:34;15.43;;;5.60;;
23565;SDS011;22140;48.988;8.544;2023-04-06T09:45:35;10.70;;;5.30;;
23565;SDS011;22140;48.988;8.544;2023-04-06T09:50:37;14.63;;;5.88;;
23565;SDS011;22140;48.988;8.544;2023-04-06T09:55:42;17.08;;;5.40;;
23565;SDS011;22140;48.988;8.544;2023-04-06T10:06:05;13.85;;;5.78;;
23565;SDS011;22140;48.988;8.544;2023-04-06T10:11:07;15.80;;;5.45;;
23565;SDS011;22140;48.988;8.544;2023-04-06T10:16:09;23.03;;;6.20;;
23565;SDS011;22140;48.988;8.544;2023-04-06T10:21:11;15.27;;;6.00;;
23565;SDS011;22140;48.988;8.544;2023-04-06T10:26:14;12.90;;;5.60;;
23565;SDS011;22140;48.988;8.544;2023-04-06T10:31:27;14.97;;;5.77;;
23565;SDS011;22140;48.988;8.544;2023-04-06T10:36:33;10.18;;;5.25;;
23565;SDS011;22140;48.988;8.544;2023-04-06T10:41:35;16.37;;;5.60;;
23565;SDS011;22140;48.988;8.544;2023-04-06T10:46:36;34.63;;;6.47;;
23565;SDS011;22140;48.988;8.544;2023-04-06T10:51:38;18.70;;;6.03;;
23565;SDS011;22140;48.988;8.544;2023-04-06T10:56:40;17.73;;;5.80;;
23565;SDS011;22140;48.988;8.544;2023-04-06T11:01:43;15.83;;;6.17;;
23565;SDS011;22140;48.988;8.544;2023-04-06T11:06:46;23.25;;;6.70;;
23565;SDS011;22140;48.988;8.544;2023-04-06T11:11:47;13.77;;;5.73;;
23565;SDS011;22140;48.988;8.544;2023-04-06T11:16:49;20.23;;;6.72;;
23565;SDS011;22140;48.988;8.544;2023-04-06T11:21:52;13.18;;;5.20;;
23565;SDS011;22140;48.988;8.544;2023-04-06T11:31:59;11.82;;;5.38;;
23565;SDS011;22140;48.988;8.544;2023-04-06T11:37:01;18.98;;;6.13;;
23565;SDS011;22140;48.988;8.544;2023-04-06T11:42:04;21.03;;;5.97;;
23565;SDS011;22140;48.988;8.544;2023-04-06T11:47:10;15.32;;;6.32;;
23565;SDS011;22140;48.988;8.544;2023-04-06T11:52:21;14.53;;;6.00;;
23565;SDS011;22140;48.988;8.544;2023-04-06T11:57:24;12.53;;;5.17;;
23565;SDS011;22140;48.988;8.544;2023-04-06T12:02:26;12.75;;;5.32;;
23565;SDS011;22140;48.988;8.544;2023-04-06T12:07:28;16.30;;;5.57;;
23565;SDS011;22140;48.988;8.544;2023-04-06T12:12:30;13.47;;;5.10;;
23565;SDS011;22140;48.988;8.544;2023-04-06T12:17:31;13.45;;;5.68;;
23565;SDS011;22140;48.988;8.544;2023-04-06T12:22:32;16.27;;;5.90;;
23565;SDS011;22140;48.988;8.544;2023-04-06T12:27:34;11.63;;;5.50;;
23565;SDS011;22140;48.988;8.544;2023-04-06T12:32:35;15.30;;;5.43;;
23565;SDS011;22140;48.988;8.544;2023-04-06T12:37:37;12.90;;;5.10;;
23565;SDS011;22140;48.988;8.544;2023-04-06T12:42:38;9.73;;;4.53;;
23565;SDS011;22140;48.988;8.544;2023-04-06T12:47:41;25.58;;;5.57;;
23565;SDS011;22140;48.988;8.544;2023-04-06T12:52:42;18.33;;;5.93;;
23565;SDS011;22140;48.988;8.544;2023-04-06T12:57:44;13.27;;;5.50;;
23565;SDS011;22140;48.988;8.544;2023-04-06T13:02:46;14.82;;;5.70;;
23565;SDS011;22140;48.988;8.544;2023-04-06T13:07:48;11.30;;;5.10;;
23565;SDS011;22140;48.988;8.544;2023-04-06T13:12:50;14.15;;;5.60;;
23565;SDS011;22140;48.988;8.544;2023-04-06T13:17:51;11.77;;;5.40;;
23565;SDS011;22140;48.988;8.544;2023-04-06T13:22:56;11.67;;;5.40;;
23565;SDS011;22140;48.988;8.544;2023-04-06T13:27:57;18.35;;;5.80;;
23565;SDS011;22140;48.988;8.544;2023-04-06T13:32:58;11.07;;;5.47;;
23565;SDS011;22140;48.988;8.544;2023-04-06T13:38:00;12.73;;;5.40;;
23565;SDS011;22140;48.988;8.544;2023-04-06T13:43:01;15.63;;;5.60;;
23565;SDS011;22140;48.988;8.544;2023-04-06T13:48:02;14.70;;;4.63;;
23565;SDS011;22140;48.988;8.544;2023-04-06T13:53:04;17.20;;;4.80;;
23565;SDS011;22140;48.988;8.544;2023-04-06T13:58:05;10.30;;;4.60;;
23565;SDS011;22140;48.988;8.544;2023-04-06T14:03:06;9.33;;;4.30;;
23565;SDS011;22140;48.988;8.544;2023-04-06T14:08:08;11.10;;;4.13;;
23565;SDS011;22140;48.988;8.544;2023-04-06T14:13:09;9.10;;;3.88;;
23565;SDS011;22140;48.988;8.544;2023-04-06T14:18:11;13.40;;;4.70;;
23565;SDS011;22140;48.988;8.544;2023-04-06T14:23:13;12.57;;;4.47;;
23565;SDS011;22140;48.988;8.544;2023-04-06T14:28:14;11.27;;;4.18;;
23565;SDS011;22140;48.988;8.544;2023-04-06T14:33:15;11.53;;;4.23;;
23565;SDS011;22140;48.988;8.544;2023-04-06T14:38:17;12.13;;;4.17;;
23565;SDS011;22140;48.988;8.544;2023-04-06T14:43:18;13.65;;;3.85;;
23565;SDS011;22140;48.988;8.544;2023-04-06T14:48:20;10.00;;;3.50;;
23565;SDS011;22140;48.988;8.544;2023-04-06T14:53:22;12.83;;;4.30;;
23565;SDS011;22140;48.988;8.544;2023-04-06T14:58:24;18.30;;;4.43;;
23565;SDS011;22140;48.988;8.544;2023-04-06T15:03:27;12.43;;;3.90;;
23565;SDS011;22140;48.988;8.544;2023-04-06T15:08:28;14.50;;;4.50;;
23565;SDS011;22140;48.988;8.544;2023-04-06T15:13:30;11.38;;;3.67;;
23565;SDS011;22140;48.988;8.544;2023-04-06T15:18:31;10.60;;;3.80;;
23565;SDS011;22140;48.988;8.544;2023-04-06T15:23:33;15.67;;;4.67;;
23565;SDS011;22140;48.988;8.544;2023-04-06T15:28:35;26.50;;;5.75;;
23565;SDS011;22140;48.988;8.544;2023-04-06T15:33:36;10.27;;;4.13;;
23565;SDS011;22140;48.988;8.544;2023-04-06T15:38:39;16.50;;;4.70;;
23565;SDS011;22140;48.988;8.544;2023-04-06T15:43:40;10.75;;;4.15;;
23565;SDS011;22140;48.988;8.544;2023-04-06T15:48:41;13.03;;;4.90;;
23565;SDS011;22140;48.988;8.544;2023-04-06T15:53:43;14.13;;;4.77;;
23565;SDS011;22140;48.988;8.544;2023-04-06T15:58:45;16.73;;;4.57;;
23565;SDS011;22140;48.988;8.544;2023-04-06T16:03:47;16.20;;;5.00;;
23565;SDS011;22140;48.988;8.544;2023-04-06T16:08:48;11.13;;;4.30;;
23565;SDS011;22140;48.988;8.544;2023-04-06T16:13:49;10.60;;;4.03;;
23565;SDS011;22140;48.988;8.544;2023-04-06T16:18:55;17.13;;;4.60;;
23565;SDS011;22140;48.988;8.544;2023-04-06T16:23:57;14.37;;;4.63;;
23565;SDS011;22140;48.988;8.544;2023-04-06T16:29:00;13.80;;;4.50;;
23565;SDS011;22140;48.988;8.544;2023-04-06T16:34:01;15.47;;;5.73;;
23565;SDS011;22140;48.988;8.544;2023-04-06T16:39:03;14.83;;;4.80;;
23565;SDS011;22140;48.988;8.544;2023-04-06T16:44:04;18.80;;;5.43;;
23565;SDS011;22140;48.988;8.544;2023-04-06T16:49:05;12.93;;;4.60;;
23565;SDS011;22140;48.988;8.544;2023-04-06T16:54:07;11.70;;;4.35;;
23565;SDS011;22140;48.988;8.544;2023-04-06T16:59:08;14.68;;;4.75;;
23565;SDS011;22140;48.988;8.544;2023-04-06T17:04:10;12.90;;;4.83;;
23565;SDS011;22140;48.988;8.544;2023-04-06T17:09:11;11.20;;;4.50;;
23565;SDS011;22140;48.988;8.544;2023-04-06T17:14:12;10.10;;;4.47;;
23565;SDS011;22140;48.988;8.544;2023-04-06T17:19:14;11.17;;;4.23;;
23565;SDS011;22140;48.988;8.544;2023-04-06T17:24:15;10.30;;;3.80;;
23565;SDS011;22140;48.988;8.544;2023-04-06T17:29:17;15.53;;;4.07;;
23565;SDS011;22140;48.988;8.544;2023-04-06T17:34:18;9.13;;;3.70;;
23565;SDS011;22140;48.988;8.544;2023-04-06T17:39:19;10.27;;;4.20;;
23565;SDS011;22140;48.988;8.544;2023-04-06T17:44:21;11.33;;;4.53;;
23565;SDS011;22140;48.988;8.544;2023-04-06T17:49:22;10.57;;;4.28;;
23565;SDS011;22140;48.988;8.544;2023-04-06T17:54:23;11.38;;;4.32;;
23565;SDS011;22140;48.988;8.544;2023-04-06T17:59:25;9.40;;;3.80;;
23565;SDS011;22140;48.988;8.544;2023-04-06T18:04:27;37.92;;;5.13;;
23565;SDS011;22140;48.988;8.544;2023-04-06T18:09:31;8.23;;;3.80;;
23565;SDS011;22140;48.988;8.544;2023-04-06T18:14:33;10.07;;;3.83;;
23565;SDS011;22140;48.988;8.544;2023-04-06T18:19:34;8.18;;;3.83;;
23565;SDS011;22140;48.988;8.544;2023-04-06T18:24:35;8.90;;;3.60;;
23565;SDS011;22140;48.988;8.544;2023-04-06T18:29:43;9.70;;;3.20;;
23565;SDS011;22140;48.988;8.544;2023-04-06T18:34:45;8.02;;;3.30;;
23565;SDS011;22140;48.988;8.544;2023-04-06T18:39:46;8.43;;;3.30;;
23565;SDS011;22140;48.988;8.544;2023-04-06T18:44:48;10.35;;;3.50;;
23565;SDS011;22140;48.988;8.544;2023-04-06T18:49:49;10.60;;;3.70;;
23565;SDS011;22140;48.988;8.544;2023-04-06T18:54:50;9.75;;;3.22;;
23565;SDS011;22140;48.988;8.544;2023-04-06T18:59:52;8.38;;;3.67;;
23565;SDS011;22140;48.988;8.544;2023-04-06T19:04:53;13.47;;;4.27;;
23565;SDS011;22140;48.988;8.544;2023-04-06T19:09:55;10.68;;;3.50;;
23565;SDS011;22140;48.988;8.544;2023-04-06T19:14:56;20.50;;;4.80;;
23565;SDS011;22140;48.988;8.544;2023-04-06T19:19:57;12.48;;;4.80;;
23565;SDS011;22140;48.988;8.544;2023-04-06T19:24:59;9.95;;;3.92;;
23565;SDS011;22140;48.988;8.544;2023-04-06T19:30:00;11.23;;;4.23;;
23565;SDS011;22140;48.988;8.544;2023-04-06T19:35:02;9.13;;;3.55;;
23565;SDS011;22140;48.988;8.544;2023-04-06T19:40:06;9.57;;;3.93;;
23565;SDS011;22140;48.988;8.544;2023-04-06T19:45:10;9.80;;;3.90;;
23565;SDS011;22140;48.988;8.544;2023-04-06T19:50:11;10.35;;;4.05;;
23565;SDS011;22140;48.988;8.544;2023-04-06T19:55:13;11.90;;;5.50;;
23565;SDS011;22140;48.988;8.544;2023-04-06T20:00:14;11.27;;;5.20;;
23565;SDS011;22140;48.988;8.544;2023-04-06T20:05:16;9.20;;;4.47;;
23565;SDS011;22140;48.988;8.544;2023-04-06T20:10:17;12.05;;;4.28;;
23565;SDS011;22140;48.988;8.544;2023-04-06T20:15:19;9.90;;;4.57;;
23565;SDS011;22140;48.988;8.544;2023-04-06T20:20:20;10.43;;;4.83;;
23565;SDS011;22140;48.988;8.544;2023-04-06T20:25:21;10.63;;;4.60;;
23565;SDS011;22140;48.988;8.544;2023-04-06T20:30:23;11.60;;;5.30;;
23565;SDS011;22140;48.988;8.544;2023-04-06T20:35:24;12.50;;;5.85;;
23565;SDS011;22140;48.988;8.544;2023-04-06T20:40:26;11.52;;;5.13;;
23565;SDS011;22140;48.988;8.544;2023-04-06T20:45:27;10.43;;;4.03;;
23565;SDS011;22140;48.988;8.544;2023-04-06T20:50:29;10.73;;;5.13;;
23565;SDS011;22140;48.988;8.544;2023-04-06T20:55:31;11.80;;;4.90;;
23565;SDS011;22140;48.988;8.544;2023-04-06T21:00:34;9.60;;;4.47;;
23565;SDS011;22140;48.988;8.544;2023-04-06T21:05:36;11.52;;;4.72;;
23565;SDS011;22140;48.988;8.544;2023-04-06T21:10:37;11.53;;;5.40;;
23565;SDS011;22140;48.988;8.544;2023-04-06T21:15:38;10.40;;;4.65;;
23565;SDS011;22140;48.988;8.544;2023-04-06T21:20:40;9.90;;;4.60;;
23565;SDS011;22140;48.988;8.544;2023-04-06T21:25:41;10.65;;;4.63;;
23565;SDS011;22140;48.988;8.544;2023-04-06T21:30:43;11.25;;;5.18;;
23565;SDS011;22140;48.988;8.544;2023-04-06T21:35:44;13.90;;;5.23;;
23565;SDS011;22140;48.988;8.544;2023-04-06T21:40:52;11.50;;;4.75;;
23565;SDS011;22140;48.988;8.544;2023-04-06T21:45:54;10.63;;;4.97;;
23565;SDS011;22140;48.988;8.544;2023-04-06T21:50:55;11.15;;;5.20;;
23565;SDS011;22140;48.988;8.544;2023-04-06T21:55:56;10.80;;;5.55;;
23565;SDS011;22140;48.988;8.544;2023-04-06T22:00:58;11.03;;;5.37;;
23565;SDS011;22140;48.988;8.544;2023-04-06T22:06:04;12.48;;;5.22;;
23565;SDS011;22140;48.988;8.544;2023-04-06T22:11:06;11.60;;;5.23;;
23565;SDS011;22140;48.988;8.544;2023-04-06T22:16:11;13.93;;;5.18;;
23565;SDS011;22140;48.988;8.544;2023-04-06T22:21:13;13.75;;;5.70;;
23565;SDS011;22140;48.988;8.544;2023-04-06T22:26:14;11.70;;;4.73;;
23565;SDS011;22140;48.988;8.544;2023-04-06T22:31:15;12.02;;;5.38;;
23565;SDS011;22140;48.988;8.544;2023-04-06T22:36:17;11.77;;;5.40;;
23565;SDS011;22140;48.988;8.544;2023-04-06T22:41:18;10.60;;;5.40;;
23565;SDS011;22140;48.988;8.544;2023-04-06T22:46:19;11.55;;;5.55;;
23565;SDS011;22140;48.988;8.544;2023-04-06T22:51:22;11.70;;;5.57;;
23565;SDS011;22140;48.988;8.544;2023-04-06T22:56:23;10.65;;;4.90;;
23565;SDS011;22140;48.988;8.544;2023-04-06T23:01:25;11.33;;;5.23;;
23565;SDS011;22140;48.988;8.544;2023-04-06T23:06:27;10.32;;;4.82;;
23565;SDS011;22140;48.988;8.544;2023-04-06T23:11:28;11.60;;;5.07;;
23565;SDS011;22140;48.988;8.544;2023-04-06T23:16:29;11.80;;;5.20;;
23565;SDS011;22140;48.988;8.544;2023-04-06T23:21:31;13.50;;;5.53;;
23565;SDS011;22140;48.988;8.544;2023-04-06T23:26:33;11.77;;;5.10;;
23565;SDS011;22140;48.988;8.544;2023-04-06T23:31:34;11.77;;;5.35;;
23565;SDS011;22140;48.988;8.544;2023-04-06T23:36:36;11.30;;;4.97;;
23565;SDS011;22140;48.988;8.544;2023-04-06T23:41:37;10.70;;;4.97;;
23565;SDS011;22140;48.988;8.544;2023-04-06T23:46:38;12.50;;;5.40;;
23565;SDS011;22140;48.988;8.544;2023-04-06T23:51:40;11.27;;;4.80;;
23565;SDS011;22140;48.988;8.544;2023-04-06T23:56:41;12.35;;;5.35;;
